sensor_id;sensor_type;location;lat;lon;timestamp;P1;durP1;ratioP1;P2;durP2;ratioP2
12112;SDS011;6120;52.250;8.478;2022-11-13T00:00:03;7.93;;;5.03;;
12112;SDS011;6120;52.250;8.478;2022-11-13T00:05:00;10.18;;;4.93;;
12112;SDS011;6120;52.250;8.478;2022-11-13T00:07:27;8.32;;;5.30;;
12112;SDS011;6120;52.250;8.478;2022-11-13T00:09:53;9.88;;;5.80;;
12112;SDS011;6120;52.250;8.478;2022-11-13T00:12:20;7.68;;;4.85;;
12112;SDS011;6120;52.250;8.478;2022-11-13T00:14:47;10.25;;;5.53;;
12112;SDS011;6120;52.250;8.478;2022-11-13T00:17:13;8.90;;;5.28;;
12112;SDS011;6120;52.250;8.478;2022-11-13T00:19:40;8.57;;;5.38;;
12112;SDS011;6120;52.250;8.478;2022-11-13T00:22:07;8.85;;;5.30;;
12112;SDS011;6120;52.250;8.478;2022-11-13T00:24:33;7.30;;;4.82;;
12112;SDS011;6120;52.250;8.478;2022-11-13T00:27:00;8.63;;;4.93;;
12112;SDS011;6120;52.250;8.478;2022-11-13T00:29:26;8.48;;;4.82;;
12112;SDS011;6120;52.250;8.478;2022-11-13T00:31:53;7.93;;;4.38;;
12112;SDS011;6120;52.250;8.478;2022-11-13T00:34:20;7.82;;;4.72;;
12112;SDS011;6120;52.250;8.478;2022-11-13T00:37:06;9.30;;;4.68;;
12112;SDS011;6120;52.250;8.478;2022-11-13T00:39:33;7.80;;;4.50;;
12112;SDS011;6120;52.250;8.478;2022-11-13T00:41:59;7.68;;;3.80;;
12112;SDS011;6120;52.250;8.478;2022-11-13T00:44:26;8.00;;;4.65;;
12112;SDS011;6120;52.250;8.478;2022-11-13T00:46:52;8.02;;;4.47;;
12112;SDS011;6120;52.250;8.478;2022-11-13T00:49:19;6.65;;;4.28;;
12112;SDS011;6120;52.250;8.478;2022-11-13T00:51:46;8.00;;;4.32;;
12112;SDS011;6120;52.250;8.478;2022-11-13T00:54:12;9.52;;;4.90;;
12112;SDS011;6120;52.250;8.478;2022-11-13T00:56:39;6.88;;;4.50;;
12112;SDS011;6120;52.250;8.478;2022-11-13T00:59:05;6.45;;;4.30;;
12112;SDS011;6120;52.250;8.478;2022-11-13T01:01:32;6.68;;;4.10;;
12112;SDS011;6120;52.250;8.478;2022-11-13T01:03:59;7.35;;;4.45;;
12112;SDS011;6120;52.250;8.478;2022-11-13T01:06:26;7.65;;;4.68;;
12112;SDS011;6120;52.250;8.478;2022-11-13T01:08:53;6.40;;;4.53;;
12112;SDS011;6120;52.250;8.478;2022-11-13T01:11:22;6.57;;;4.47;;
12112;SDS011;6120;52.250;8.478;2022-11-13T01:13:51;6.72;;;4.20;;
12112;SDS011;6120;52.250;8.478;2022-11-13T01:16:20;7.60;;;4.30;;
12112;SDS011;6120;52.250;8.478;2022-11-13T01:18:47;6.20;;;4.32;;
12112;SDS011;6120;52.250;8.478;2022-11-13T01:21:15;7.97;;;4.95;;
12112;SDS011;6120;52.250;8.478;2022-11-13T01:23:46;8.00;;;4.78;;
12112;SDS011;6120;52.250;8.478;2022-11-13T01:26:14;7.57;;;4.82;;
12112;SDS011;6120;52.250;8.478;2022-11-13T01:28:45;8.05;;;4.90;;
12112;SDS011;6120;52.250;8.478;2022-11-13T01:31:13;8.82;;;5.30;;
12112;SDS011;6120;52.250;8.478;2022-11-13T01:33:42;8.70;;;5.22;;
12112;SDS011;6120;52.250;8.478;2022-11-13T01:36:10;8.87;;;5.53;;
12112;SDS011;6120;52.250;8.478;2022-11-13T01:38:38;8.52;;;5.38;;
12112;SDS011;6120;52.250;8.478;2022-11-13T01:41:05;8.65;;;4.88;;
12112;SDS011;6120;52.250;8.478;2022-11-13T01:43:33;8.88;;;5.22;;
12112;SDS011;6120;52.250;8.478;2022-11-13T01:48:38;9.23;;;5.22;;
12112;SDS011;6120;52.250;8.478;2022-11-13T01:51:15;8.25;;;4.88;;
12112;SDS011;6120;52.250;8.478;2022-11-13T01:53:53;9.00;;;5.03;;
12112;SDS011;6120;52.250;8.478;2022-11-13T01:56:20;9.05;;;5.15;;
12112;SDS011;6120;52.250;8.478;2022-11-13T01:58:50;7.90;;;4.90;;
12112;SDS011;6120;52.250;8.478;2022-11-13T02:01:20;8.88;;;4.43;;
12112;SDS011;6120;52.250;8.478;2022-11-13T02:03:47;7.40;;;4.07;;
12112;SDS011;6120;52.250;8.478;2022-11-13T02:06:13;6.78;;;4.47;;
12112;SDS011;6120;52.250;8.478;2022-11-13T02:08:40;7.07;;;4.28;;
12112;SDS011;6120;52.250;8.478;2022-11-13T02:11:07;7.50;;;4.55;;
12112;SDS011;6120;52.250;8.478;2022-11-13T02:13:33;5.93;;;3.67;;
12112;SDS011;6120;52.250;8.478;2022-11-13T02:16:03;6.63;;;4.07;;
12112;SDS011;6120;52.250;8.478;2022-11-13T02:18:32;6.93;;;4.00;;
12112;SDS011;6120;52.250;8.478;2022-11-13T02:26:47;8.52;;;4.00;;
12112;SDS011;6120;52.250;8.478;2022-11-13T02:29:15;6.78;;;3.53;;
12112;SDS011;6120;52.250;8.478;2022-11-13T02:31:41;5.88;;;3.20;;
12112;SDS011;6120;52.250;8.478;2022-11-13T02:34:08;6.45;;;3.50;;
12112;SDS011;6120;52.250;8.478;2022-11-13T02:36:35;7.93;;;3.47;;
12112;SDS011;6120;52.250;8.478;2022-11-13T02:39:03;5.53;;;3.20;;
12112;SDS011;6120;52.250;8.478;2022-11-13T02:41:31;5.28;;;3.50;;
12112;SDS011;6120;52.250;8.478;2022-11-13T02:43:58;6.65;;;3.50;;
12112;SDS011;6120;52.250;8.478;2022-11-13T02:46:25;4.43;;;3.03;;
12112;SDS011;6120;52.250;8.478;2022-11-13T02:48:51;5.03;;;3.20;;
12112;SDS011;6120;52.250;8.478;2022-11-13T02:51:18;5.43;;;3.47;;
12112;SDS011;6120;52.250;8.478;2022-11-13T02:53:44;5.57;;;3.45;;
12112;SDS011;6120;52.250;8.478;2022-11-13T02:56:11;5.40;;;3.13;;
12112;SDS011;6120;52.250;8.478;2022-11-13T02:58:38;6.85;;;3.67;;
12112;SDS011;6120;52.250;8.478;2022-11-13T03:01:04;7.28;;;2.72;;
12112;SDS011;6120;52.250;8.478;2022-11-13T03:03:31;5.63;;;2.50;;
12112;SDS011;6120;52.250;8.478;2022-11-13T03:06:17;4.80;;;2.90;;
12112;SDS011;6120;52.250;8.478;2022-11-13T03:08:44;5.80;;;3.00;;
12112;SDS011;6120;52.250;8.478;2022-11-13T03:11:11;4.53;;;2.70;;
12112;SDS011;6120;52.250;8.478;2022-11-13T03:13:38;4.25;;;2.63;;
12112;SDS011;6120;52.250;8.478;2022-11-13T03:16:12;4.68;;;3.10;;
12112;SDS011;6120;52.250;8.478;2022-11-13T03:18:39;4.63;;;2.90;;
12112;SDS011;6120;52.250;8.478;2022-11-13T03:21:10;5.40;;;2.97;;
12112;SDS011;6120;52.250;8.478;2022-11-13T03:23:39;5.55;;;3.30;;
12112;SDS011;6120;52.250;8.478;2022-11-13T03:28:35;5.63;;;3.28;;
12112;SDS011;6120;52.250;8.478;2022-11-13T03:31:02;5.28;;;3.28;;
12112;SDS011;6120;52.250;8.478;2022-11-13T03:33:29;4.65;;;2.95;;
12112;SDS011;6120;52.250;8.478;2022-11-13T03:35:56;5.03;;;3.00;;
12112;SDS011;6120;52.250;8.478;2022-11-13T03:38:23;5.25;;;3.20;;
12112;SDS011;6120;52.250;8.478;2022-11-13T03:40:50;5.55;;;3.35;;
12112;SDS011;6120;52.250;8.478;2022-11-13T03:43:17;5.25;;;3.05;;
12112;SDS011;6120;52.250;8.478;2022-11-13T03:45:44;4.35;;;2.60;;
12112;SDS011;6120;52.250;8.478;2022-11-13T03:48:12;5.57;;;3.10;;
12112;SDS011;6120;52.250;8.478;2022-11-13T03:50:41;5.30;;;2.72;;
12112;SDS011;6120;52.250;8.478;2022-11-13T03:53:11;5.75;;;3.45;;
12112;SDS011;6120;52.250;8.478;2022-11-13T03:55:38;6.63;;;3.80;;
12112;SDS011;6120;52.250;8.478;2022-11-13T03:58:05;5.18;;;3.20;;
12112;SDS011;6120;52.250;8.478;2022-11-13T04:00:31;5.88;;;3.45;;
12112;SDS011;6120;52.250;8.478;2022-11-13T04:02:58;6.60;;;4.07;;
12112;SDS011;6120;52.250;8.478;2022-11-13T04:05:25;6.63;;;3.72;;
12112;SDS011;6120;52.250;8.478;2022-11-13T04:07:52;8.93;;;4.32;;
12112;SDS011;6120;52.250;8.478;2022-11-13T04:10:18;7.63;;;4.18;;
12112;SDS011;6120;52.250;8.478;2022-11-13T04:12:45;6.63;;;4.38;;
12112;SDS011;6120;52.250;8.478;2022-11-13T04:15:11;6.65;;;3.95;;
12112;SDS011;6120;52.250;8.478;2022-11-13T04:17:38;6.57;;;4.03;;
12112;SDS011;6120;52.250;8.478;2022-11-13T04:20:05;5.75;;;3.88;;
12112;SDS011;6120;52.250;8.478;2022-11-13T04:22:32;7.15;;;4.13;;
12112;SDS011;6120;52.250;8.478;2022-11-13T04:24:59;6.43;;;4.15;;
12112;SDS011;6120;52.250;8.478;2022-11-13T04:27:26;9.02;;;4.70;;
12112;SDS011;6120;52.250;8.478;2022-11-13T04:29:52;8.07;;;5.00;;
12112;SDS011;6120;52.250;8.478;2022-11-13T04:32:19;10.32;;;4.95;;
12112;SDS011;6120;52.250;8.478;2022-11-13T04:34:45;7.78;;;4.30;;
12112;SDS011;6120;52.250;8.478;2022-11-13T04:37:12;7.88;;;4.68;;
12112;SDS011;6120;52.250;8.478;2022-11-13T04:39:39;9.10;;;4.65;;
12112;SDS011;6120;52.250;8.478;2022-11-13T04:42:05;6.93;;;4.07;;
12112;SDS011;6120;52.250;8.478;2022-11-13T04:44:50;5.93;;;3.85;;
12112;SDS011;6120;52.250;8.478;2022-11-13T04:47:17;8.52;;;4.28;;
12112;SDS011;6120;52.250;8.478;2022-11-13T04:49:44;6.68;;;4.07;;
12112;SDS011;6120;52.250;8.478;2022-11-13T04:52:10;7.22;;;3.65;;
12112;SDS011;6120;52.250;8.478;2022-11-13T04:54:38;5.97;;;3.78;;
12112;SDS011;6120;52.250;8.478;2022-11-13T04:57:05;6.15;;;3.80;;
12112;SDS011;6120;52.250;8.478;2022-11-13T04:59:32;7.22;;;3.70;;
12112;SDS011;6120;52.250;8.478;2022-11-13T05:01:58;5.32;;;3.55;;
12112;SDS011;6120;52.250;8.478;2022-11-13T05:04:25;5.78;;;3.60;;
12112;SDS011;6120;52.250;8.478;2022-11-13T05:06:51;5.78;;;3.42;;
12112;SDS011;6120;52.250;8.478;2022-11-13T05:09:18;5.75;;;3.78;;
12112;SDS011;6120;52.250;8.478;2022-11-13T05:11:45;7.05;;;4.18;;
12112;SDS011;6120;52.250;8.478;2022-11-13T05:14:11;6.30;;;3.55;;
12112;SDS011;6120;52.250;8.478;2022-11-13T05:16:38;5.70;;;3.92;;
12112;SDS011;6120;52.250;8.478;2022-11-13T05:19:05;6.25;;;3.78;;
12112;SDS011;6120;52.250;8.478;2022-11-13T05:21:33;9.90;;;4.65;;
12112;SDS011;6120;52.250;8.478;2022-11-13T05:24:00;6.55;;;4.07;;
12112;SDS011;6120;52.250;8.478;2022-11-13T05:26:27;6.90;;;4.50;;
12112;SDS011;6120;52.250;8.478;2022-11-13T05:28:57;7.63;;;4.13;;
12112;SDS011;6120;52.250;8.478;2022-11-13T05:31:24;5.70;;;3.70;;
12112;SDS011;6120;52.250;8.478;2022-11-13T05:33:52;7.25;;;3.90;;
12112;SDS011;6120;52.250;8.478;2022-11-13T05:36:19;7.95;;;4.93;;
12112;SDS011;6120;52.250;8.478;2022-11-13T05:38:46;7.40;;;4.88;;
12112;SDS011;6120;52.250;8.478;2022-11-13T05:41:14;7.00;;;4.13;;
12112;SDS011;6120;52.250;8.478;2022-11-13T05:43:42;7.15;;;4.47;;
12112;SDS011;6120;52.250;8.478;2022-11-13T05:48:39;6.55;;;3.58;;
12112;SDS011;6120;52.250;8.478;2022-11-13T05:53:34;7.22;;;3.65;;
12112;SDS011;6120;52.250;8.478;2022-11-13T05:56:06;7.00;;;3.37;;
12112;SDS011;6120;52.250;8.478;2022-11-13T05:58:35;6.22;;;3.75;;
12112;SDS011;6120;52.250;8.478;2022-11-13T06:01:05;5.15;;;3.40;;
12112;SDS011;6120;52.250;8.478;2022-11-13T06:03:36;6.45;;;3.38;;
12112;SDS011;6120;52.250;8.478;2022-11-13T06:06:03;6.60;;;3.65;;
12112;SDS011;6120;52.250;8.478;2022-11-13T06:08:31;7.78;;;4.35;;
12112;SDS011;6120;52.250;8.478;2022-11-13T06:11:01;6.13;;;3.88;;
12112;SDS011;6120;52.250;8.478;2022-11-13T06:13:29;6.15;;;3.63;;
12112;SDS011;6120;52.250;8.478;2022-11-13T06:16:04;7.90;;;3.83;;
12112;SDS011;6120;52.250;8.478;2022-11-13T06:18:35;6.47;;;4.13;;
12112;SDS011;6120;52.250;8.478;2022-11-13T06:21:06;5.05;;;3.33;;
12112;SDS011;6120;52.250;8.478;2022-11-13T06:23:35;7.10;;;4.03;;
12112;SDS011;6120;52.250;8.478;2022-11-13T06:28:30;6.05;;;3.55;;
12112;SDS011;6120;52.250;8.478;2022-11-13T06:31:01;5.70;;;3.55;;
12112;SDS011;6120;52.250;8.478;2022-11-13T06:33:33;6.07;;;3.30;;
12112;SDS011;6120;52.250;8.478;2022-11-13T06:36:00;7.43;;;3.55;;
12112;SDS011;6120;52.250;8.478;2022-11-13T06:38:29;5.90;;;3.53;;
12112;SDS011;6120;52.250;8.478;2022-11-13T06:40:59;7.13;;;4.05;;
12112;SDS011;6120;52.250;8.478;2022-11-13T06:43:27;4.35;;;2.90;;
12112;SDS011;6120;52.250;8.478;2022-11-13T06:45:54;6.60;;;3.70;;
12112;SDS011;6120;52.250;8.478;2022-11-13T06:48:21;5.05;;;3.25;;
12112;SDS011;6120;52.250;8.478;2022-11-13T06:50:48;5.65;;;3.00;;
12112;SDS011;6120;52.250;8.478;2022-11-13T06:53:16;5.30;;;3.20;;
12112;SDS011;6120;52.250;8.478;2022-11-13T06:55:47;4.68;;;2.80;;
12112;SDS011;6120;52.250;8.478;2022-11-13T06:58:14;10.68;;;3.10;;
12112;SDS011;6120;52.250;8.478;2022-11-13T07:00:41;5.05;;;3.15;;
12112;SDS011;6120;52.250;8.478;2022-11-13T07:03:16;6.18;;;3.30;;
12112;SDS011;6120;52.250;8.478;2022-11-13T07:05:43;5.70;;;2.78;;
12112;SDS011;6120;52.250;8.478;2022-11-13T07:08:11;4.78;;;2.70;;
12112;SDS011;6120;52.250;8.478;2022-11-13T07:10:38;5.40;;;2.95;;
12112;SDS011;6120;52.250;8.478;2022-11-13T07:13:05;3.95;;;2.80;;
12112;SDS011;6120;52.250;8.478;2022-11-13T07:15:33;4.00;;;2.50;;
12112;SDS011;6120;52.250;8.478;2022-11-13T07:18:03;4.82;;;2.75;;
12112;SDS011;6120;52.250;8.478;2022-11-13T07:20:30;5.73;;;2.80;;
12112;SDS011;6120;52.250;8.478;2022-11-13T07:22:57;4.03;;;2.58;;
12112;SDS011;6120;52.250;8.478;2022-11-13T07:25:26;4.47;;;2.75;;
12112;SDS011;6120;52.250;8.478;2022-11-13T07:27:52;4.55;;;2.47;;
12112;SDS011;6120;52.250;8.478;2022-11-13T07:30:19;5.20;;;2.63;;
12112;SDS011;6120;52.250;8.478;2022-11-13T07:32:46;4.15;;;2.60;;
12112;SDS011;6120;52.250;8.478;2022-11-13T07:35:12;5.10;;;3.10;;
12112;SDS011;6120;52.250;8.478;2022-11-13T07:37:39;6.13;;;2.72;;
12112;SDS011;6120;52.250;8.478;2022-11-13T07:40:06;4.63;;;2.40;;
12112;SDS011;6120;52.250;8.478;2022-11-13T07:42:33;4.47;;;2.55;;
12112;SDS011;6120;52.250;8.478;2022-11-13T07:44:59;6.53;;;2.40;;
12112;SDS011;6120;52.250;8.478;2022-11-13T07:47:26;3.97;;;2.30;;
12112;SDS011;6120;52.250;8.478;2022-11-13T07:49:53;4.93;;;2.58;;
12112;SDS011;6120;52.250;8.478;2022-11-13T07:52:28;4.57;;;2.40;;
12112;SDS011;6120;52.250;8.478;2022-11-13T07:54:55;3.78;;;2.45;;
12112;SDS011;6120;52.250;8.478;2022-11-13T07:57:22;4.47;;;2.30;;
12112;SDS011;6120;52.250;8.478;2022-11-13T07:59:48;4.50;;;2.72;;
12112;SDS011;6120;52.250;8.478;2022-11-13T08:02:15;4.25;;;2.50;;
12112;SDS011;6120;52.250;8.478;2022-11-13T08:04:42;4.15;;;2.22;;
12112;SDS011;6120;52.250;8.478;2022-11-13T08:07:09;4.68;;;2.20;;
12112;SDS011;6120;52.250;8.478;2022-11-13T08:09:37;4.68;;;2.72;;
12112;SDS011;6120;52.250;8.478;2022-11-13T08:12:04;3.97;;;1.98;;
12112;SDS011;6120;52.250;8.478;2022-11-13T08:14:31;3.95;;;2.45;;
12112;SDS011;6120;52.250;8.478;2022-11-13T08:16:58;4.63;;;2.50;;
12112;SDS011;6120;52.250;8.478;2022-11-13T08:19:24;3.83;;;2.08;;
12112;SDS011;6120;52.250;8.478;2022-11-13T08:21:51;3.67;;;2.30;;
12112;SDS011;6120;52.250;8.478;2022-11-13T08:24:17;4.05;;;2.60;;
12112;SDS011;6120;52.250;8.478;2022-11-13T08:26:44;5.07;;;2.72;;
12112;SDS011;6120;52.250;8.478;2022-11-13T08:29:10;3.53;;;2.50;;
12112;SDS011;6120;52.250;8.478;2022-11-13T08:31:37;4.65;;;2.80;;
12112;SDS011;6120;52.250;8.478;2022-11-13T08:34:04;4.93;;;2.70;;
12112;SDS011;6120;52.250;8.478;2022-11-13T08:36:30;4.60;;;2.90;;
12112;SDS011;6120;52.250;8.478;2022-11-13T08:38:57;5.50;;;2.60;;
12112;SDS011;6120;52.250;8.478;2022-11-13T08:41:23;4.47;;;2.60;;
12112;SDS011;6120;52.250;8.478;2022-11-13T08:43:50;4.57;;;2.63;;
12112;SDS011;6120;52.250;8.478;2022-11-13T08:46:16;4.40;;;2.45;;
12112;SDS011;6120;52.250;8.478;2022-11-13T08:48:43;5.57;;;3.00;;
12112;SDS011;6120;52.250;8.478;2022-11-13T08:51:10;6.10;;;4.00;;
12112;SDS011;6120;52.250;8.478;2022-11-13T08:53:36;6.03;;;3.13;;
12112;SDS011;6120;52.250;8.478;2022-11-13T08:56:03;5.38;;;3.38;;
12112;SDS011;6120;52.250;8.478;2022-11-13T08:58:30;3.75;;;2.50;;
12112;SDS011;6120;52.250;8.478;2022-11-13T09:01:01;4.38;;;3.10;;
12112;SDS011;6120;52.250;8.478;2022-11-13T09:03:28;6.38;;;3.85;;
12112;SDS011;6120;52.250;8.478;2022-11-13T09:05:55;6.60;;;4.18;;
12112;SDS011;6120;52.250;8.478;2022-11-13T09:08:21;6.32;;;4.22;;
12112;SDS011;6120;52.250;8.478;2022-11-13T09:10:48;7.78;;;3.80;;
12112;SDS011;6120;52.250;8.478;2022-11-13T09:13:14;6.50;;;4.25;;
12112;SDS011;6120;52.250;8.478;2022-11-13T09:15:41;9.65;;;5.43;;
12112;SDS011;6120;52.250;8.478;2022-11-13T09:18:08;13.27;;;7.30;;
12112;SDS011;6120;52.250;8.478;2022-11-13T09:20:35;7.82;;;5.03;;
12112;SDS011;6120;52.250;8.478;2022-11-13T09:23:03;7.03;;;3.85;;
12112;SDS011;6120;52.250;8.478;2022-11-13T09:25:33;7.70;;;3.80;;
12112;SDS011;6120;52.250;8.478;2022-11-13T09:28:03;6.47;;;3.80;;
12112;SDS011;6120;52.250;8.478;2022-11-13T09:30:30;5.47;;;4.20;;
12112;SDS011;6120;52.250;8.478;2022-11-13T09:32:57;4.43;;;3.08;;
12112;SDS011;6120;52.250;8.478;2022-11-13T09:35:25;4.15;;;2.78;;
12112;SDS011;6120;52.250;8.478;2022-11-13T09:38:12;5.10;;;3.15;;
12112;SDS011;6120;52.250;8.478;2022-11-13T09:40:49;4.70;;;3.20;;
12112;SDS011;6120;52.250;8.478;2022-11-13T09:43:27;4.78;;;3.00;;
12112;SDS011;6120;52.250;8.478;2022-11-13T09:46:05;4.38;;;2.83;;
12112;SDS011;6120;52.250;8.478;2022-11-13T09:48:41;5.47;;;3.50;;
12112;SDS011;6120;52.250;8.478;2022-11-13T09:51:13;4.18;;;2.80;;
12112;SDS011;6120;52.250;8.478;2022-11-13T09:53:41;4.88;;;2.80;;
12112;SDS011;6120;52.250;8.478;2022-11-13T09:56:15;3.72;;;2.40;;
12112;SDS011;6120;52.250;8.478;2022-11-13T09:58:48;3.63;;;2.45;;
12112;SDS011;6120;52.250;8.478;2022-11-13T10:01:22;5.13;;;2.67;;
12112;SDS011;6120;52.250;8.478;2022-11-13T10:04:03;4.47;;;2.78;;
12112;SDS011;6120;52.250;8.478;2022-11-13T10:12:27;7.70;;;2.40;;
12112;SDS011;6120;52.250;8.478;2022-11-13T10:14:56;5.13;;;2.63;;
12112;SDS011;6120;52.250;8.478;2022-11-13T10:17:49;3.17;;;1.83;;
12112;SDS011;6120;52.250;8.478;2022-11-13T10:20:33;3.47;;;2.10;;
12112;SDS011;6120;52.250;8.478;2022-11-13T10:23:07;3.58;;;1.80;;
12112;SDS011;6120;52.250;8.478;2022-11-13T10:25:37;3.42;;;1.83;;
12112;SDS011;6120;52.250;8.478;2022-11-13T10:28:09;3.08;;;1.50;;
12112;SDS011;6120;52.250;8.478;2022-11-13T10:30:57;3.28;;;1.77;;
12112;SDS011;6120;52.250;8.478;2022-11-13T10:33:24;3.92;;;1.70;;
12112;SDS011;6120;52.250;8.478;2022-11-13T10:38:52;2.20;;;1.50;;
12112;SDS011;6120;52.250;8.478;2022-11-13T10:41:23;3.17;;;1.75;;
12112;SDS011;6120;52.250;8.478;2022-11-13T10:43:51;2.92;;;1.60;;
12112;SDS011;6120;52.250;8.478;2022-11-13T10:46:22;3.28;;;1.88;;
12112;SDS011;6120;52.250;8.478;2022-11-13T10:48:50;3.17;;;2.08;;
12112;SDS011;6120;52.250;8.478;2022-11-13T10:53:51;7.53;;;3.10;;
12112;SDS011;6120;52.250;8.478;2022-11-13T11:01:37;3.15;;;1.88;;
12112;SDS011;6120;52.250;8.478;2022-11-13T11:04:04;3.92;;;1.85;;
12112;SDS011;6120;52.250;8.478;2022-11-13T11:06:33;6.70;;;1.98;;
12112;SDS011;6120;52.250;8.478;2022-11-13T11:09:27;4.20;;;2.03;;
12112;SDS011;6120;52.250;8.478;2022-11-13T11:12:08;4.30;;;1.60;;
12112;SDS011;6120;52.250;8.478;2022-11-13T11:17:30;5.28;;;2.08;;
12112;SDS011;6120;52.250;8.478;2022-11-13T11:19:59;4.97;;;2.22;;
12112;SDS011;6120;52.250;8.478;2022-11-13T11:22:31;3.60;;;1.88;;
12112;SDS011;6120;52.250;8.478;2022-11-13T11:25:11;4.60;;;2.33;;
12112;SDS011;6120;52.250;8.478;2022-11-13T11:27:43;4.03;;;1.88;;
12112;SDS011;6120;52.250;8.478;2022-11-13T11:30:17;3.85;;;2.10;;
12112;SDS011;6120;52.250;8.478;2022-11-13T11:32:59;3.65;;;1.95;;
12112;SDS011;6120;52.250;8.478;2022-11-13T11:35:31;2.67;;;1.67;;
12112;SDS011;6120;52.250;8.478;2022-11-13T11:38:23;3.60;;;1.85;;
12112;SDS011;6120;52.250;8.478;2022-11-13T11:40:54;2.97;;;1.80;;
12112;SDS011;6120;52.250;8.478;2022-11-13T11:43:42;2.67;;;1.73;;
12112;SDS011;6120;52.250;8.478;2022-11-13T11:46:13;4.10;;;2.00;;
12112;SDS011;6120;52.250;8.478;2022-11-13T11:48:41;4.13;;;2.03;;
12112;SDS011;6120;52.250;8.478;2022-11-13T11:56:41;3.38;;;2.00;;
12112;SDS011;6120;52.250;8.478;2022-11-13T12:04:51;5.05;;;2.28;;
12112;SDS011;6120;52.250;8.478;2022-11-13T12:07:32;3.30;;;2.15;;
12112;SDS011;6120;52.250;8.478;2022-11-13T12:10:12;2.83;;;1.90;;
12112;SDS011;6120;52.250;8.478;2022-11-13T12:21:31;3.75;;;2.00;;
12112;SDS011;6120;52.250;8.478;2022-11-13T12:38:12;6.28;;;2.47;;
12112;SDS011;6120;52.250;8.478;2022-11-13T12:46:33;5.63;;;3.80;;
12112;SDS011;6120;52.250;8.478;2022-11-13T12:51:39;6.60;;;3.28;;
12112;SDS011;6120;52.250;8.478;2022-11-13T12:54:08;8.20;;;3.33;;
12112;SDS011;6120;52.250;8.478;2022-11-13T12:56:35;6.20;;;3.58;;
12112;SDS011;6120;52.250;8.478;2022-11-13T13:07:23;4.85;;;3.20;;
12112;SDS011;6120;52.250;8.478;2022-11-13T13:15:54;9.43;;;3.78;;
12112;SDS011;6120;52.250;8.478;2022-11-13T13:18:32;6.13;;;3.92;;
12112;SDS011;6120;52.250;8.478;2022-11-13T13:21:04;6.75;;;4.22;;
12112;SDS011;6120;52.250;8.478;2022-11-13T13:23:36;5.68;;;3.55;;
12112;SDS011;6120;52.250;8.478;2022-11-13T13:28:39;5.72;;;3.40;;
12112;SDS011;6120;52.250;8.478;2022-11-13T13:33:55;6.50;;;3.58;;
12112;SDS011;6120;52.250;8.478;2022-11-13T13:36:48;5.95;;;3.97;;
12112;SDS011;6120;52.250;8.478;2022-11-13T13:41:57;7.00;;;4.45;;
12112;SDS011;6120;52.250;8.478;2022-11-13T13:44:35;8.95;;;5.28;;
12112;SDS011;6120;52.250;8.478;2022-11-13T13:47:05;8.57;;;4.72;;
12112;SDS011;6120;52.250;8.478;2022-11-13T13:49:55;8.68;;;5.00;;
12112;SDS011;6120;52.250;8.478;2022-11-13T13:52:27;9.13;;;5.20;;
12112;SDS011;6120;52.250;8.478;2022-11-13T13:54:55;6.90;;;4.75;;
12112;SDS011;6120;52.250;8.478;2022-11-13T13:57:23;7.25;;;4.93;;
12112;SDS011;6120;52.250;8.478;2022-11-13T13:59:50;7.25;;;5.00;;
12112;SDS011;6120;52.250;8.478;2022-11-13T14:02:21;9.48;;;5.25;;
12112;SDS011;6120;52.250;8.478;2022-11-13T14:04:52;7.00;;;4.45;;
12112;SDS011;6120;52.250;8.478;2022-11-13T14:07:24;7.97;;;4.60;;
12112;SDS011;6120;52.250;8.478;2022-11-13T14:10:07;6.57;;;4.18;;
12112;SDS011;6120;52.250;8.478;2022-11-13T14:12:40;7.68;;;4.43;;
12112;SDS011;6120;52.250;8.478;2022-11-13T14:15:28;7.72;;;4.20;;
12112;SDS011;6120;52.250;8.478;2022-11-13T14:18:06;7.28;;;4.22;;
12112;SDS011;6120;52.250;8.478;2022-11-13T14:20:39;8.05;;;4.53;;
12112;SDS011;6120;52.250;8.478;2022-11-13T14:23:20;7.97;;;4.75;;
12112;SDS011;6120;52.250;8.478;2022-11-13T14:25:50;8.70;;;4.80;;
12112;SDS011;6120;52.250;8.478;2022-11-13T14:28:18;10.73;;;4.75;;
12112;SDS011;6120;52.250;8.478;2022-11-13T14:30:52;9.25;;;5.18;;
12112;SDS011;6120;52.250;8.478;2022-11-13T14:33:25;8.35;;;4.72;;
12112;SDS011;6120;52.250;8.478;2022-11-13T14:35:56;8.25;;;4.85;;
12112;SDS011;6120;52.250;8.478;2022-11-13T14:38:25;8.70;;;5.57;;
12112;SDS011;6120;52.250;8.478;2022-11-13T14:40:53;14.32;;;6.35;;
12112;SDS011;6120;52.250;8.478;2022-11-13T14:43:25;9.77;;;5.47;;
12112;SDS011;6120;52.250;8.478;2022-11-13T14:46:00;9.60;;;5.80;;
12112;SDS011;6120;52.250;8.478;2022-11-13T14:48:31;8.90;;;5.57;;
12112;SDS011;6120;52.250;8.478;2022-11-13T14:53:37;11.98;;;4.88;;
12112;SDS011;6120;52.250;8.478;2022-11-13T14:56:05;12.02;;;6.20;;
12112;SDS011;6120;52.250;8.478;2022-11-13T14:58:37;11.55;;;5.90;;
12112;SDS011;6120;52.250;8.478;2022-11-13T15:01:13;9.68;;;5.90;;
12112;SDS011;6120;52.250;8.478;2022-11-13T15:03:44;12.00;;;6.25;;
12112;SDS011;6120;52.250;8.478;2022-11-13T15:06:13;12.33;;;6.20;;
12112;SDS011;6120;52.250;8.478;2022-11-13T15:08:41;12.00;;;6.60;;
12112;SDS011;6120;52.250;8.478;2022-11-13T15:11:11;9.27;;;6.50;;
12112;SDS011;6120;52.250;8.478;2022-11-13T15:13:39;14.35;;;7.38;;
12112;SDS011;6120;52.250;8.478;2022-11-13T15:16:08;12.75;;;7.53;;
12112;SDS011;6120;52.250;8.478;2022-11-13T15:18:47;14.10;;;7.53;;
12112;SDS011;6120;52.250;8.478;2022-11-13T15:21:16;13.88;;;8.38;;
12112;SDS011;6120;52.250;8.478;2022-11-13T15:23:43;16.58;;;8.90;;
12112;SDS011;6120;52.250;8.478;2022-11-13T15:26:10;19.63;;;10.50;;
12112;SDS011;6120;52.250;8.478;2022-11-13T15:28:37;14.77;;;8.50;;
12112;SDS011;6120;52.250;8.478;2022-11-13T15:31:11;14.93;;;8.65;;
12112;SDS011;6120;52.250;8.478;2022-11-13T15:33:43;16.20;;;9.00;;
12112;SDS011;6120;52.250;8.478;2022-11-13T15:36:10;15.18;;;9.10;;
12112;SDS011;6120;52.250;8.478;2022-11-13T15:38:37;20.65;;;10.15;;
12112;SDS011;6120;52.250;8.478;2022-11-13T15:41:08;16.70;;;9.52;;
12112;SDS011;6120;52.250;8.478;2022-11-13T15:43:38;16.00;;;9.55;;
12112;SDS011;6120;52.250;8.478;2022-11-13T15:46:07;18.83;;;9.88;;
12112;SDS011;6120;52.250;8.478;2022-11-13T15:48:39;22.30;;;11.50;;
12112;SDS011;6120;52.250;8.478;2022-11-13T15:51:17;19.33;;;9.63;;
12112;SDS011;6120;52.250;8.478;2022-11-13T15:53:56;20.55;;;11.57;;
12112;SDS011;6120;52.250;8.478;2022-11-13T15:56:25;20.48;;;10.90;;
12112;SDS011;6120;52.250;8.478;2022-11-13T15:58:52;21.67;;;12.23;;
12112;SDS011;6120;52.250;8.478;2022-11-13T16:01:19;19.67;;;10.88;;
12112;SDS011;6120;52.250;8.478;2022-11-13T16:03:46;23.40;;;11.93;;
12112;SDS011;6120;52.250;8.478;2022-11-13T16:06:17;22.98;;;13.10;;
12112;SDS011;6120;52.250;8.478;2022-11-13T16:08:45;22.92;;;12.57;;
12112;SDS011;6120;52.250;8.478;2022-11-13T16:11:16;24.35;;;13.30;;
12112;SDS011;6120;52.250;8.478;2022-11-13T16:13:43;26.20;;;14.18;;
12112;SDS011;6120;52.250;8.478;2022-11-13T16:16:15;25.77;;;14.18;;
12112;SDS011;6120;52.250;8.478;2022-11-13T16:18:48;30.52;;;15.57;;
12112;SDS011;6120;52.250;8.478;2022-11-13T16:21:19;28.15;;;15.23;;
12112;SDS011;6120;52.250;8.478;2022-11-13T16:23:46;29.95;;;15.98;;
12112;SDS011;6120;52.250;8.478;2022-11-13T16:26:17;30.40;;;15.88;;
12112;SDS011;6120;52.250;8.478;2022-11-13T16:28:45;34.63;;;16.30;;
12112;SDS011;6120;52.250;8.478;2022-11-13T16:31:32;30.47;;;16.60;;
12112;SDS011;6120;52.250;8.478;2022-11-13T16:33:59;30.17;;;16.65;;
12112;SDS011;6120;52.250;8.478;2022-11-13T16:36:25;30.52;;;16.42;;
12112;SDS011;6120;52.250;8.478;2022-11-13T16:38:52;28.75;;;16.50;;
12112;SDS011;6120;52.250;8.478;2022-11-13T16:41:20;36.58;;;18.25;;
12112;SDS011;6120;52.250;8.478;2022-11-13T16:43:48;35.65;;;18.50;;
12112;SDS011;6120;52.250;8.478;2022-11-13T16:46:17;32.50;;;17.25;;
12112;SDS011;6120;52.250;8.478;2022-11-13T16:48:48;34.35;;;18.02;;
12112;SDS011;6120;52.250;8.478;2022-11-13T16:51:15;32.30;;;16.25;;
12112;SDS011;6120;52.250;8.478;2022-11-13T16:53:42;36.88;;;17.20;;
12112;SDS011;6120;52.250;8.478;2022-11-13T16:56:22;40.38;;;19.42;;
12112;SDS011;6120;52.250;8.478;2022-11-13T16:58:53;35.53;;;18.80;;